Milligan, Tennessee
Current Conditions -  °F | °C
As of 7:35 PM on Saturday 25 Oct 2014 (Local Time) from K0A9 Reporting Station
Overcast Overcast  
Wind Chill: 59°   Ceiling: 4100
Heat Index: 59°   Visibility: 10mi
Dew Point: 48°   Wind: 3mph
Humidity: 67%   Direction: 290°WNW
Pressure: 30.02"   Gusts: NA
Location:  36.3017°N, 82.2994°W
Report Text: K0A9 252335Z AUTO 29003KT 10SM OVC041 15/09 A3002 RMK
Loading
Personal Weather Stations






























Interactive Weather Map
Tropical Storm Tracking
New forecast layout! Learn more

10-Day Weather Forecast

Advertisements
Track Severe Weather on mobile